KGEV

Details ICAO KGEV
Name ASHE COUNTY
Region United States
Timezone America/New_York (UTC-5.0)
Plans Departing 0
Arriving 5
Stats Elevation 3,180 ft / 969 m (AMSL)
Location 36.432446° -81.419701°
Runways 1
Magnetic Variation 7.578° W
Sunrise 2017-12-12 12:29:38 UTC / 2017-12-12 07:29:38 Local
Sunset 2017-12-12 22:12:15 UTC / 2017-12-12 17:12:15 Local
Advertisement - Login to hide

Runways

ID Width Length Bearing (true) Bearing (mag) Surface Threshold Offset Overrun Length
10 75 ft / 23 m 4,283 ft / 1,306 m 88.87° 96.45° Asphalt 0 ft / 0 m 0 ft / 0 m
28 75 ft / 23 m 4,283 ft / 1,306 m 268.88° 276.46° Asphalt 0 ft / 0 m 0 ft / 0 m

Map

Weather


0- 5 10 15 20 25 30 35+ Temperature / ° C

Clouds and Precipitation
Forecast for 2017-12-13 06:00 UTC. Updated an hour ago

Ground ~20,000 ft ~40,000 ft Winds

METAR

KGEV 130350Z AUTO 31023G30KT 10SM SCT028 SCT033 M08/M14 A2968 RMK AO2 T10761145

TAF

Not found

Frequencies

Recorded 120.67 MHz AWOS 3
Approach 125.15 MHz ATLANTA APP/DEP
Unicom 122.80 MHz CTAF/UNICOM
Warning: Do not use this data for real-world aviation or navigation. No guarantee of current accuracy is given.